createdAt,value
2019-03-23T00:02:05.377Z,9.00
2019-03-23T00:04:33.564Z,7.37
2019-03-23T00:07:21.050Z,7.70
2019-03-23T00:09:49.315Z,8.57
2019-03-23T00:12:17.527Z,9.43
2019-03-23T00:14:45.701Z,10.37
2019-03-23T00:17:14.050Z,9.23
2019-03-23T00:19:42.198Z,10.63
2019-03-23T00:22:10.343Z,7.97
2019-03-23T00:24:38.653Z,10.47
2019-03-23T00:27:06.907Z,8.37
2019-03-23T00:29:35.073Z,7.53
2019-03-23T00:32:03.272Z,9.17
2019-03-23T00:34:31.407Z,8.33
2019-03-23T00:36:59.553Z,8.10
2019-03-23T00:39:27.731Z,8.17
2019-03-23T00:41:55.886Z,8.30
2019-03-23T00:44:24.032Z,8.80
2019-03-23T00:46:52.171Z,9.07
2019-03-23T00:49:20.305Z,7.93
2019-03-23T00:51:48.450Z,9.13
2019-03-23T00:54:16.772Z,9.33
2019-03-23T00:56:44.951Z,10.33
2019-03-23T00:59:13.126Z,10.67
2019-03-23T01:01:41.320Z,10.70
2019-03-23T01:04:09.453Z,8.23
2019-03-23T01:06:37.587Z,9.53
2019-03-23T01:09:06.397Z,10.57
2019-03-23T01:11:34.777Z,8.87
2019-03-23T01:14:02.909Z,12.17
2019-03-23T01:16:31.084Z,9.83
2019-03-23T01:18:59.225Z,10.80
2019-03-23T01:21:27.366Z,9.27
2019-03-23T01:23:55.657Z,8.17
2019-03-23T01:26:23.796Z,8.67
2019-03-23T01:28:51.934Z,8.07
2019-03-23T01:31:20.226Z,7.77
2019-03-23T01:33:48.374Z,10.27
2019-03-23T01:36:16.514Z,8.20
2019-03-23T01:38:44.830Z,8.77
2019-03-23T01:41:12.975Z,7.07
2019-03-23T01:43:41.105Z,9.20
2019-03-23T01:46:09.249Z,9.73
2019-03-23T01:48:37.401Z,10.27
2019-03-23T01:51:05.534Z,8.00
2019-03-23T01:53:53.157Z,7.23
2019-03-23T01:56:21.292Z,8.17
2019-03-23T01:58:49.799Z,8.77
2019-03-23T02:01:17.990Z,9.03
2019-03-23T02:03:46.137Z,7.63
2019-03-23T02:06:14.275Z,7.10
2019-03-23T02:08:42.434Z,7.13
2019-03-23T02:11:10.567Z,8.70
2019-03-23T02:13:38.714Z,9.60
2019-03-23T02:16:07.070Z,7.67
2019-03-23T02:18:35.209Z,8.00
2019-03-23T02:21:03.355Z,10.30
2019-03-23T02:23:31.575Z,8.93
2019-03-23T02:25:59.702Z,9.57
2019-03-23T02:28:27.838Z,11.10
2019-03-23T02:30:56.152Z,8.70
2019-03-23T02:33:24.290Z,8.13
2019-03-23T02:35:52.413Z,7.60
2019-03-23T02:38:20.885Z,9.73
2019-03-23T02:40:49.031Z,8.47
2019-03-23T02:43:17.171Z,8.13
2019-03-23T02:45:45.675Z,6.90
2019-03-23T02:48:13.802Z,7.50
2019-03-23T02:50:41.951Z,7.60
2019-03-23T02:53:10.171Z,8.63
2019-03-23T02:55:38.306Z,6.57
2019-03-23T02:58:06.541Z,6.80
2019-03-23T03:00:36.442Z,8.60
2019-03-23T03:03:04.750Z,7.80
2019-03-23T03:05:32.891Z,6.83
2019-03-23T03:08:01.049Z,8.83
2019-03-23T03:10:36.826Z,8.33
2019-03-23T03:13:05.081Z,7.17
2019-03-23T03:15:33.232Z,6.87
2019-03-23T03:18:01.414Z,9.30
2019-03-23T03:20:29.667Z,8.10
2019-03-23T03:22:57.810Z,7.13
2019-03-23T03:25:25.962Z,7.07
2019-03-23T03:27:54.374Z,7.17
2019-03-23T03:30:22.518Z,7.03
2019-03-23T03:32:50.655Z,10.40
2019-03-23T03:35:19.097Z,7.30
2019-03-23T03:37:56.409Z,8.80
2019-03-23T03:40:17.174Z,7.60
2019-03-23T03:42:45.460Z,7.20
2019-03-23T03:45:15.134Z,7.23
2019-03-23T03:47:43.270Z,8.63
2019-03-23T03:50:11.507Z,8.10
2019-03-23T03:52:39.718Z,10.70
2019-03-23T03:55:07.933Z,8.77
2019-03-23T03:57:36.249Z,9.90
2019-03-23T04:00:08.110Z,9.60
2019-03-23T04:02:36.410Z,7.40
2019-03-23T04:05:05.443Z,7.10
2019-03-23T04:07:33.569Z,8.67
2019-03-23T04:10:01.802Z,8.27
2019-03-23T04:12:29.996Z,7.87
2019-03-23T04:14:58.205Z,12.20
2019-03-23T04:17:26.359Z,6.77
2019-03-23T04:19:54.690Z,9.40
2019-03-23T04:22:22.814Z,7.37
2019-03-23T04:24:50.966Z,7.00
2019-03-23T04:27:19.268Z,8.27
2019-03-23T04:29:47.393Z,8.13
2019-03-23T04:32:15.549Z,8.03
2019-03-23T04:34:43.723Z,7.57
2019-03-23T04:37:11.847Z,9.67
2019-03-23T04:39:39.987Z,6.27
2019-03-23T04:42:08.421Z,9.33
2019-03-23T04:44:36.570Z,8.73
2019-03-23T04:47:04.765Z,7.73
2019-03-23T04:49:32.923Z,7.93
2019-03-23T04:52:01.049Z,7.73
2019-03-23T04:54:29.185Z,7.37
2019-03-23T04:56:57.366Z,8.47
2019-03-23T04:59:25.686Z,7.43
2019-03-23T05:01:53.828Z,8.67
2019-03-23T05:04:22.018Z,9.63
2019-03-23T05:06:50.162Z,7.63
2019-03-23T05:09:18.310Z,6.17
2019-03-23T05:11:46.734Z,8.10
2019-03-23T05:14:14.877Z,7.43
2019-03-23T05:16:43.015Z,7.27
2019-03-23T05:19:11.397Z,8.90
2019-03-23T05:21:39.701Z,8.03
2019-03-23T05:24:07.850Z,7.33
2019-03-23T05:26:36.169Z,7.73
2019-03-23T05:29:04.319Z,7.77
2019-03-23T05:31:32.475Z,8.17
2019-03-23T05:34:00.646Z,7.60
2019-03-23T05:36:28.781Z,7.37
2019-03-23T05:38:56.937Z,8.17
2019-03-23T05:41:25.359Z,6.77
2019-03-23T05:43:53.495Z,8.33
2019-03-23T05:46:21.613Z,6.73
2019-03-23T05:48:49.775Z,11.60
2019-03-23T05:51:17.908Z,9.27
2019-03-23T05:53:46.041Z,7.67
2019-03-23T05:56:14.357Z,7.40
2019-03-23T05:58:42.610Z,8.67
2019-03-23T06:01:10.800Z,7.70
2019-03-23T06:03:39.056Z,8.37
2019-03-23T06:06:07.192Z,6.63
2019-03-23T06:08:35.336Z,6.63
2019-03-23T06:11:03.550Z,7.50
2019-03-23T06:13:31.693Z,6.60
2019-03-23T06:15:59.798Z,9.47
2019-03-23T06:18:28.322Z,7.73
2019-03-23T06:20:56.455Z,9.10
2019-03-23T06:23:24.593Z,7.50
2019-03-23T06:25:52.783Z,7.20
2019-03-23T06:28:20.915Z,8.97
2019-03-23T06:30:49.050Z,8.93
2019-03-23T06:33:17.351Z,9.20
2019-03-23T06:35:45.501Z,7.37
2019-03-23T06:38:13.642Z,8.43
2019-03-23T06:40:41.839Z,7.37
2019-03-23T06:43:09.989Z,7.87
2019-03-23T06:45:38.136Z,10.57
2019-03-23T06:48:06.428Z,8.90
2019-03-23T06:50:34.557Z,8.83
2019-03-23T06:53:02.690Z,8.03
2019-03-23T06:55:31.085Z,9.73
2019-03-23T06:57:59.237Z,9.87
2019-03-23T07:00:27.370Z,8.17
2019-03-23T07:02:55.545Z,10.40
2019-03-23T07:05:25.518Z,10.00
2019-03-23T07:07:53.694Z,8.63
2019-03-23T07:10:21.858Z,8.93
2019-03-23T07:12:50.014Z,9.20
2019-03-23T07:15:20.221Z,11.93
2019-03-23T07:17:48.177Z,11.03
2019-03-23T07:20:16.377Z,11.47
2019-03-23T07:22:44.523Z,9.03
2019-03-23T07:25:12.889Z,11.93
2019-03-23T07:27:41.033Z,12.57
2019-03-23T07:30:10.710Z,9.13
2019-03-23T07:32:39.070Z,12.47
2019-03-23T07:35:07.378Z,8.70
2019-03-23T07:37:35.518Z,9.03
2019-03-23T07:40:05.003Z,12.20
2019-03-23T07:42:33.130Z,11.65
2019-03-23T07:45:01.271Z,9.48
2019-03-23T07:47:29.418Z,11.13
2019-03-23T07:50:00.568Z,14.95
2019-03-23T07:52:28.690Z,10.70
2019-03-23T07:54:58.502Z,11.43
2019-03-23T07:57:26.710Z,10.82
2019-03-23T07:59:54.849Z,11.10
2019-03-23T08:02:23.042Z,10.75
2019-03-23T08:04:51.197Z,12.35
2019-03-23T08:07:19.329Z,9.90
2019-03-23T08:09:47.505Z,12.37
2019-03-23T08:12:15.633Z,9.75
2019-03-23T08:14:43.790Z,10.88
2019-03-23T08:17:12.084Z,14.98
2019-03-23T08:19:40.218Z,10.40
2019-03-23T08:22:08.365Z,12.30
2019-03-23T08:24:36.650Z,14.05
2019-03-23T08:27:04.799Z,11.33
2019-03-23T08:29:32.938Z,12.60
2019-03-23T08:32:01.271Z,13.70
2019-03-23T08:34:29.422Z,14.47
2019-03-23T08:36:57.564Z,13.18
2019-03-23T08:39:25.930Z,14.10
2019-03-23T08:41:54.063Z,12.70
2019-03-23T08:44:22.216Z,11.85
2019-03-23T08:46:50.527Z,14.30
2019-03-23T08:49:18.720Z,15.30
2019-03-23T08:51:46.906Z,12.82
2019-03-23T08:54:15.675Z,15.93
2019-03-23T08:56:43.804Z,13.90
2019-03-23T08:59:11.949Z,11.93
2019-03-23T09:01:40.374Z,14.85
2019-03-23T09:04:08.638Z,13.30
2019-03-23T09:06:36.843Z,14.13
2019-03-23T09:09:06.035Z,13.58
2019-03-23T09:11:34.174Z,14.53
2019-03-23T09:14:02.314Z,13.45
2019-03-23T09:16:30.530Z,13.13
2019-03-23T09:18:58.697Z,14.47
2019-03-23T09:21:26.889Z,12.80
2019-03-23T09:23:55.297Z,13.90
2019-03-23T09:26:23.435Z,13.43
2019-03-23T09:28:51.587Z,15.32
2019-03-23T09:31:19.966Z,15.98
2019-03-23T09:33:48.116Z,12.80
2019-03-23T09:36:16.254Z,17.10
2019-03-23T09:38:44.605Z,13.72
2019-03-23T09:41:12.762Z,15.70
2019-03-23T09:43:40.920Z,13.90
2019-03-23T09:46:09.173Z,13.53
2019-03-23T09:48:37.318Z,15.85
2019-03-23T09:51:05.478Z,14.40
2019-03-23T09:53:33.713Z,17.10
2019-03-23T09:56:01.846Z,16.73
2019-03-23T09:58:30.022Z,16.90
2019-03-23T10:00:59.090Z,13.85
2019-03-23T10:03:27.249Z,13.53
2019-03-23T10:05:55.377Z,15.43
2019-03-23T10:08:23.543Z,13.25
2019-03-23T10:10:51.682Z,14.63
2019-03-23T10:13:19.822Z,15.00
2019-03-23T10:15:48.041Z,17.67
2019-03-23T10:18:16.182Z,15.20
2019-03-23T10:20:44.335Z,16.45
2019-03-23T10:23:12.675Z,15.65
2019-03-23T10:25:40.829Z,17.23
2019-03-23T10:28:09.017Z,15.25
2019-03-23T10:30:37.181Z,13.48
2019-03-23T10:33:05.345Z,14.73
2019-03-23T10:35:33.559Z,18.15
2019-03-23T10:38:01.878Z,18.02
2019-03-23T10:40:32.677Z,16.65
2019-03-23T10:42:59.913Z,17.40
2019-03-23T10:45:28.206Z,18.80
2019-03-23T10:50:24.534Z,16.07
2019-03-23T10:52:52.699Z,15.85
2019-03-23T10:55:20.870Z,19.25
2019-03-23T10:57:49.010Z,16.02
2019-03-23T11:00:17.311Z,16.12
2019-03-23T11:02:45.470Z,16.90
2019-03-23T11:05:13.692Z,17.00
2019-03-23T11:07:41.902Z,19.00
2019-03-23T11:10:11.114Z,16.32
2019-03-23T11:12:39.301Z,17.80
2019-03-23T11:15:08.060Z,19.77
2019-03-23T11:17:36.198Z,17.23
2019-03-23T11:20:08.682Z,19.42
2019-03-23T11:22:36.966Z,19.17
2019-03-23T11:25:06.247Z,19.12
2019-03-23T11:27:34.393Z,17.05
2019-03-23T11:30:02.907Z,18.15
2019-03-23T11:32:31.116Z,15.75
2019-03-23T11:34:59.289Z,19.37
2019-03-23T11:37:27.590Z,19.27
2019-03-23T11:39:55.875Z,23.30
2019-03-23T11:42:24.038Z,17.62
2019-03-23T11:44:52.367Z,21.55
2019-03-23T11:47:20.492Z,20.30
2019-03-23T11:49:48.664Z,20.32
2019-03-23T11:52:16.885Z,21.77
2019-03-23T11:54:46.674Z,20.20
2019-03-23T11:57:14.851Z,23.20
2019-03-23T11:59:43.597Z,19.85
2019-03-23T12:02:11.843Z,20.17
2019-03-23T12:04:42.986Z,22.50
2019-03-23T12:07:11.431Z,21.97
2019-03-23T12:09:39.583Z,20.37
2019-03-23T12:12:07.782Z,21.02
2019-03-23T12:14:36.499Z,22.07
2019-03-23T12:17:04.625Z,19.67
2019-03-23T12:19:32.804Z,20.30
2019-03-23T12:22:01.226Z,22.22
2019-03-23T12:24:29.368Z,20.95
2019-03-23T12:26:57.512Z,23.47
2019-03-23T12:29:25.852Z,21.07
2019-03-23T12:31:53.996Z,23.35
2019-03-23T12:34:22.129Z,21.77
2019-03-23T12:36:50.422Z,21.80
2019-03-23T12:39:18.562Z,22.22
2019-03-23T12:41:46.717Z,22.22
2019-03-23T12:44:15.044Z,20.92
2019-03-23T12:46:48.256Z,21.77
2019-03-23T12:49:13.104Z,22.35
2019-03-23T12:51:41.255Z,23.07
2019-03-23T12:54:09.391Z,22.98
2019-03-23T12:56:37.537Z,23.75
2019-03-23T12:59:05.802Z,26.17
2019-03-23T13:01:33.996Z,22.77
2019-03-23T13:04:02.193Z,24.87
2019-03-23T13:06:30.350Z,26.48
2019-03-23T13:08:58.499Z,25.68
2019-03-23T13:11:34.951Z,24.12
2019-03-23T13:13:56.710Z,25.30
2019-03-23T13:16:24.845Z,25.23
2019-03-23T13:18:53.038Z,27.65
2019-03-23T13:21:21.386Z,26.33
2019-03-23T13:23:49.595Z,24.50
2019-03-23T13:26:17.747Z,25.23
2019-03-23T13:28:45.969Z,26.68
2019-03-23T13:31:14.114Z,25.00
2019-03-23T13:33:42.269Z,25.77
2019-03-23T13:36:10.536Z,25.77
2019-03-23T13:38:38.700Z,25.05
2019-03-23T13:41:06.941Z,27.42
2019-03-23T13:43:36.204Z,29.82
2019-03-23T13:46:04.477Z,28.52
2019-03-23T13:48:32.637Z,26.20
2019-03-23T13:51:00.993Z,26.95
2019-03-23T13:53:29.170Z,25.92
2019-03-23T13:55:57.296Z,29.18
2019-03-23T13:58:25.511Z,28.05
2019-03-23T14:00:53.652Z,28.52
2019-03-23T14:03:21.833Z,29.42
2019-03-23T14:05:50.339Z,28.12
2019-03-23T14:08:18.482Z,32.88
2019-03-23T14:10:46.649Z,31.80
2019-03-23T14:13:15.093Z,34.25
2019-03-23T14:15:43.260Z,32.80
2019-03-23T14:18:11.399Z,33.95
2019-03-23T14:20:39.747Z,33.55
2019-03-23T14:23:07.941Z,36.45
2019-03-23T14:25:36.138Z,31.97
2019-03-23T14:28:04.489Z,35.45
2019-03-23T14:30:32.642Z,37.93
2019-03-23T14:33:00.802Z,35.50
2019-03-23T14:35:29.164Z,33.38
2019-03-23T14:37:57.314Z,35.83
2019-03-23T14:40:25.463Z,39.98
2019-03-23T14:42:53.787Z,34.40
2019-03-23T14:45:21.934Z,37.23
2019-03-23T14:47:50.078Z,35.88
2019-03-23T14:50:18.432Z,36.10
2019-03-23T14:52:46.634Z,35.45
2019-03-23T14:55:14.793Z,33.38
2019-03-23T14:57:43.108Z,38.78
2019-03-23T15:00:11.757Z,36.80
2019-03-23T15:02:39.902Z,35.55
2019-03-23T15:05:08.495Z,37.48
2019-03-23T15:07:36.633Z,35.65
2019-03-23T15:10:08.834Z,35.38
2019-03-23T15:12:37.124Z,35.85
2019-03-23T15:15:05.972Z,39.00
2019-03-23T15:17:34.105Z,39.95
2019-03-23T15:20:02.430Z,34.23
2019-03-23T15:22:33.578Z,33.25
2019-03-23T15:25:01.723Z,36.60
2019-03-23T15:27:29.991Z,35.83
2019-03-23T15:29:58.240Z,37.17
2019-03-23T15:32:26.400Z,35.30
2019-03-23T15:34:54.711Z,37.93
2019-03-23T15:37:22.854Z,38.38
2019-03-23T15:39:51.003Z,38.73
2019-03-23T15:42:24.674Z,34.13
2019-03-23T15:44:49.226Z,37.08
2019-03-23T15:47:17.379Z,38.13
2019-03-23T15:49:45.670Z,34.92
2019-03-23T15:52:13.826Z,38.30
2019-03-23T15:54:42.095Z,37.38
2019-03-23T15:57:10.439Z,35.05
2019-03-23T15:59:38.565Z,37.78
2019-03-23T16:02:06.710Z,37.67
2019-03-23T16:04:34.999Z,33.92
2019-03-23T16:07:03.140Z,37.85
2019-03-23T16:09:31.285Z,37.10
2019-03-23T16:11:59.459Z,49.88
2019-03-23T16:14:27.656Z,35.73
2019-03-23T16:16:55.838Z,32.88
2019-03-23T16:19:24.111Z,35.38
2019-03-23T16:21:52.262Z,38.88
2019-03-23T16:24:20.429Z,41.53
2019-03-23T16:26:48.656Z,41.23
2019-03-23T16:29:16.797Z,38.88
2019-03-23T16:31:44.956Z,39.88
2019-03-23T16:34:13.158Z,40.05
2019-03-23T16:36:41.304Z,41.65
2019-03-23T16:39:09.445Z,39.67
2019-03-23T16:41:37.807Z,37.45
2019-03-23T16:44:05.955Z,41.25
2019-03-23T16:46:34.124Z,33.70
2019-03-23T16:49:02.433Z,39.53
2019-03-23T16:51:30.593Z,39.00
2019-03-23T16:53:58.734Z,38.00
2019-03-23T16:56:27.125Z,37.40
2019-03-23T16:58:55.333Z,39.35
2019-03-23T17:01:23.597Z,37.75
2019-03-23T17:03:51.998Z,39.13
2019-03-23T17:06:21.705Z,60.75
2019-03-23T17:08:49.906Z,141.55
2019-03-23T17:11:18.135Z,53.52
2019-03-23T17:13:46.285Z,60.12
2019-03-23T17:16:14.425Z,71.97
2019-03-23T17:18:42.754Z,66.90
2019-03-23T17:21:10.910Z,41.73
2019-03-23T17:23:39.084Z,49.48
2019-03-23T17:26:07.297Z,44.13
2019-03-23T17:28:35.475Z,43.00
2019-03-23T17:31:03.703Z,41.95
2019-03-23T17:33:32.217Z,37.78
2019-03-23T17:36:00.355Z,38.95
2019-03-23T17:38:28.498Z,38.20
2019-03-23T17:40:56.725Z,41.23
2019-03-23T17:43:24.878Z,39.63
2019-03-23T17:45:53.021Z,39.23
2019-03-23T17:48:21.241Z,38.02
2019-03-23T17:50:49.381Z,42.25
2019-03-23T17:53:17.530Z,40.73
2019-03-23T17:55:46.007Z,41.83
2019-03-23T17:58:14.143Z,38.13
2019-03-23T18:00:42.299Z,41.28
2019-03-23T18:03:10.594Z,41.73
2019-03-23T18:05:38.851Z,44.90
2019-03-23T18:08:07.095Z,44.58
2019-03-23T18:10:35.434Z,40.83
2019-03-23T18:13:03.622Z,39.85
2019-03-23T18:15:31.759Z,42.27
2019-03-23T18:18:00.302Z,41.68
2019-03-23T18:20:28.521Z,41.25
2019-03-23T18:22:56.654Z,38.30
2019-03-23T18:25:24.978Z,41.25
2019-03-23T18:27:53.127Z,43.20
2019-03-23T18:30:31.785Z,42.85
2019-03-23T18:32:59.930Z,42.60
2019-03-23T18:35:28.106Z,41.37
2019-03-23T18:37:56.269Z,40.78
2019-03-23T18:40:24.446Z,41.58
2019-03-23T18:42:52.629Z,39.83
2019-03-23T18:45:20.853Z,42.20
2019-03-23T18:47:49.001Z,38.38
2019-03-23T18:50:17.144Z,41.40
2019-03-23T18:52:45.517Z,42.25
2019-03-23T18:55:13.661Z,46.98
2019-03-23T18:57:41.810Z,44.48
2019-03-23T19:00:11.168Z,48.63
2019-03-23T19:02:39.306Z,41.95
2019-03-23T19:05:07.513Z,50.45
2019-03-23T19:07:35.962Z,45.12
2019-03-23T19:10:05.679Z,41.85
2019-03-23T19:12:33.879Z,37.17
2019-03-23T19:15:02.311Z,33.33
2019-03-23T19:17:30.462Z,34.65
2019-03-23T19:19:58.615Z,34.00
2019-03-23T19:22:26.956Z,37.15
2019-03-23T19:24:55.098Z,30.27
2019-03-23T19:27:23.249Z,32.33
2019-03-23T19:29:51.397Z,30.52
2019-03-23T19:32:19.541Z,28.92
2019-03-23T19:34:47.746Z,26.48
2019-03-23T19:37:15.922Z,27.55
2019-03-23T19:39:44.079Z,24.60
2019-03-23T19:42:12.242Z,23.22
2019-03-23T19:44:40.458Z,28.00
2019-03-23T19:47:08.615Z,24.37
2019-03-23T19:49:36.751Z,24.87
2019-03-23T19:52:05.053Z,21.57
2019-03-23T19:54:33.279Z,24.07
2019-03-23T19:57:01.437Z,24.82
2019-03-23T19:59:29.930Z,23.50
2019-03-23T20:01:58.063Z,23.12
2019-03-23T20:04:26.197Z,22.13
2019-03-23T20:06:54.572Z,24.50
2019-03-23T20:09:22.726Z,23.60
2019-03-23T20:11:50.861Z,23.05
2019-03-23T20:14:19.225Z,21.80
2019-03-23T20:16:47.414Z,23.12
2019-03-23T20:19:15.566Z,21.42
2019-03-23T20:21:43.898Z,20.85
2019-03-23T20:24:12.025Z,24.52
2019-03-23T20:26:40.183Z,23.20
2019-03-23T20:29:09.244Z,27.52
2019-03-23T20:31:37.429Z,23.27
2019-03-23T20:34:05.557Z,23.47
2019-03-23T20:36:33.894Z,23.70
2019-03-23T20:39:02.038Z,24.55
2019-03-23T20:41:30.377Z,25.90
2019-03-23T20:44:08.885Z,25.92
2019-03-23T20:46:28.690Z,23.18
2019-03-23T20:48:56.834Z,21.97
2019-03-23T20:51:25.151Z,20.10
2019-03-23T20:53:53.365Z,21.75
2019-03-23T20:56:21.525Z,22.32
2019-03-23T20:58:49.841Z,25.15
2019-03-23T21:01:17.985Z,22.32
2019-03-23T21:03:46.142Z,24.85
2019-03-23T21:06:14.461Z,21.65
2019-03-23T21:08:42.677Z,20.30
2019-03-23T21:11:10.817Z,23.40
2019-03-23T21:13:38.981Z,22.22
2019-03-23T21:16:07.139Z,24.43
2019-03-23T21:18:35.364Z,21.73
2019-03-23T21:21:03.683Z,23.00
2019-03-23T21:23:31.830Z,24.90
2019-03-23T21:25:59.969Z,23.30
2019-03-23T21:28:28.181Z,25.75
2019-03-23T21:30:56.333Z,21.65
2019-03-23T21:33:24.514Z,19.87
2019-03-23T21:35:52.724Z,24.02
2019-03-23T21:38:20.874Z,20.27
2019-03-23T21:40:49.027Z,18.67
2019-03-23T21:43:17.404Z,23.07
2019-03-23T21:45:45.590Z,22.30
2019-03-23T21:48:13.732Z,20.62
2019-03-23T21:50:47.426Z,23.90
2019-03-23T21:53:11.778Z,20.77
2019-03-23T21:55:39.976Z,20.57
2019-03-23T21:58:08.390Z,20.60
2019-03-23T22:00:37.585Z,20.30
2019-03-23T22:03:05.740Z,22.85
2019-03-23T22:05:34.021Z,20.70
2019-03-23T22:08:02.169Z,23.60
2019-03-23T22:10:30.388Z,22.67
2019-03-23T22:12:58.561Z,22.52
2019-03-23T22:15:28.377Z,19.05
2019-03-23T22:17:56.526Z,21.10
2019-03-23T22:20:27.158Z,20.05
2019-03-23T22:22:55.318Z,19.80
2019-03-23T22:25:23.461Z,22.17
2019-03-23T22:27:51.738Z,20.37
2019-03-23T22:30:19.882Z,21.73
2019-03-23T22:32:48.094Z,24.33
2019-03-23T22:35:16.503Z,20.63
2019-03-23T22:37:44.714Z,23.17
2019-03-23T22:40:13.115Z,22.82
2019-03-23T22:42:41.310Z,20.87
2019-03-23T22:45:09.947Z,20.20
2019-03-23T22:47:38.186Z,19.70
2019-03-23T22:50:06.826Z,18.63
2019-03-23T22:52:34.969Z,20.27
2019-03-23T22:55:03.493Z,23.97
2019-03-23T22:57:31.763Z,21.12
2019-03-23T22:59:59.909Z,21.30
2019-03-23T23:02:28.066Z,21.93
2019-03-23T23:04:56.376Z,22.43
2019-03-23T23:07:24.541Z,21.10
2019-03-23T23:09:52.742Z,21.87
2019-03-23T23:12:20.914Z,20.70
2019-03-23T23:14:49.073Z,25.70
2019-03-23T23:17:17.221Z,23.87
2019-03-23T23:19:45.557Z,24.40
2019-03-23T23:22:13.686Z,19.57
2019-03-23T23:24:41.827Z,21.07
2019-03-23T23:27:10.173Z,23.57
2019-03-23T23:29:38.331Z,23.27
2019-03-23T23:32:06.485Z,22.63
2019-03-23T23:34:34.864Z,18.73
2019-03-23T23:37:03.002Z,23.53
2019-03-23T23:39:31.185Z,20.27
2019-03-23T23:41:59.556Z,20.73
2019-03-23T23:44:27.689Z,19.80
2019-03-23T23:46:55.820Z,20.03
2019-03-23T23:49:24.013Z,21.43
2019-03-23T23:51:52.189Z,19.10
2019-03-23T23:54:20.342Z,21.13
2019-03-23T23:56:48.861Z,23.70
2019-03-23T23:59:17.129Z,20.17
